sensor_id;sensor_type;location;lat;lon;timestamp;temperature;humidity
33927;DHT22;20485;50.992;5.550;2023-03-17T00:02:07;7.20;99.90
33927;DHT22;20485;50.992;5.550;2023-03-17T00:04:32;7.20;99.90
33927;DHT22;20485;50.992;5.550;2023-03-17T00:06:58;7.30;99.90
33927;DHT22;20485;50.992;5.550;2023-03-17T00:09:24;7.30;99.90
33927;DHT22;20485;50.992;5.550;2023-03-17T00:11:49;7.30;99.90
33927;DHT22;20485;50.992;5.550;2023-03-17T00:14:15;7.30;99.90
33927;DHT22;20485;50.992;5.550;2023-03-17T00:16:41;7.30;99.90
33927;DHT22;20485;50.992;5.550;2023-03-17T00:19:14;7.30;99.90
33927;DHT22;20485;50.992;5.550;2023-03-17T00:21:41;7.30;99.90
33927;DHT22;20485;50.992;5.550;2023-03-17T00:24:10;7.30;99.90
33927;DHT22;20485;50.992;5.550;2023-03-17T00:26:36;7.40;99.90
33927;DHT22;20485;50.992;5.550;2023-03-17T00:29:02;7.40;99.90
33927;DHT22;20485;50.992;5.550;2023-03-17T00:31:28;7.50;99.90
33927;DHT22;20485;50.992;5.550;2023-03-17T00:33:56;7.40;99.90
33927;DHT22;20485;50.992;5.550;2023-03-17T00:36:26;7.50;99.90
33927;DHT22;20485;50.992;5.550;2023-03-17T00:38:52;7.40;99.90
33927;DHT22;20485;50.992;5.550;2023-03-17T00:41:18;7.40;99.90
33927;DHT22;20485;50.992;5.550;2023-03-17T00:43:44;7.40;99.90
33927;DHT22;20485;50.992;5.550;2023-03-17T00:48:39;7.40;99.90
33927;DHT22;20485;50.992;5.550;2023-03-17T00:51:05;7.40;99.90
33927;DHT22;20485;50.992;5.550;2023-03-17T00:53:31;7.40;99.90
33927;DHT22;20485;50.992;5.550;2023-03-17T00:55:57;7.30;99.90
33927;DHT22;20485;50.992;5.550;2023-03-17T01:00:49;7.20;99.90
33927;DHT22;20485;50.992;5.550;2023-03-17T01:03:14;7.20;99.90
33927;DHT22;20485;50.992;5.550;2023-03-17T01:05:40;7.10;99.90
33927;DHT22;20485;50.992;5.550;2023-03-17T01:08:07;7.10;99.90
33927;DHT22;20485;50.992;5.550;2023-03-17T01:10:33;7.10;99.90
33927;DHT22;20485;50.992;5.550;2023-03-17T01:12:59;7.10;99.90
33927;DHT22;20485;50.992;5.550;2023-03-17T01:15:27;7.00;99.90
33927;DHT22;20485;50.992;5.550;2023-03-17T01:17:53;7.00;99.90
33927;DHT22;20485;50.992;5.550;2023-03-17T01:20:20;7.00;99.90
33927;DHT22;20485;50.992;5.550;2023-03-17T01:22:46;7.00;99.90
33927;DHT22;20485;50.992;5.550;2023-03-17T01:25:11;6.90;99.90
33927;DHT22;20485;50.992;5.550;2023-03-17T01:27:37;6.90;99.90
33927;DHT22;20485;50.992;5.550;2023-03-17T01:30:04;6.80;99.90
33927;DHT22;20485;50.992;5.550;2023-03-17T01:32:30;6.80;99.90
33927;DHT22;20485;50.992;5.550;2023-03-17T01:34:56;6.90;99.90
33927;DHT22;20485;50.992;5.550;2023-03-17T01:37:22;6.90;99.90
33927;DHT22;20485;50.992;5.550;2023-03-17T01:39:47;6.90;99.90
33927;DHT22;20485;50.992;5.550;2023-03-17T01:42:13;6.80;99.90
33927;DHT22;20485;50.992;5.550;2023-03-17T01:44:55;6.80;99.90
33927;DHT22;20485;50.992;5.550;2023-03-17T01:47:21;6.80;99.90
33927;DHT22;20485;50.992;5.550;2023-03-17T01:49:47;6.70;99.90
33927;DHT22;20485;50.992;5.550;2023-03-17T01:52:14;6.70;99.90
33927;DHT22;20485;50.992;5.550;2023-03-17T01:54:45;6.70;99.90
33927;DHT22;20485;50.992;5.550;2023-03-17T01:57:15;6.60;99.90
33927;DHT22;20485;50.992;5.550;2023-03-17T01:59:48;6.60;99.90
33927;DHT22;20485;50.992;5.550;2023-03-17T02:02:16;6.60;99.90
33927;DHT22;20485;50.992;5.550;2023-03-17T02:04:42;6.60;99.90
33927;DHT22;20485;50.992;5.550;2023-03-17T02:07:08;6.60;99.90
33927;DHT22;20485;50.992;5.550;2023-03-17T02:09:34;6.60;99.90
33927;DHT22;20485;50.992;5.550;2023-03-17T02:12:00;6.60;99.90
33927;DHT22;20485;50.992;5.550;2023-03-17T02:14:27;6.50;99.90
33927;DHT22;20485;50.992;5.550;2023-03-17T02:16:52;6.60;99.90
33927;DHT22;20485;50.992;5.550;2023-03-17T02:19:18;6.60;99.90
33927;DHT22;20485;50.992;5.550;2023-03-17T02:24:15;6.60;99.90
33927;DHT22;20485;50.992;5.550;2023-03-17T02:26:43;6.50;99.90
33927;DHT22;20485;50.992;5.550;2023-03-17T02:29:10;6.40;99.90
33927;DHT22;20485;50.992;5.550;2023-03-17T02:31:36;6.40;99.90
33927;DHT22;20485;50.992;5.550;2023-03-17T02:34:02;6.40;99.90
33927;DHT22;20485;50.992;5.550;2023-03-17T02:36:27;6.40;99.90
33927;DHT22;20485;50.992;5.550;2023-03-17T02:38:53;6.40;99.90
33927;DHT22;20485;50.992;5.550;2023-03-17T02:41:19;6.40;99.90
33927;DHT22;20485;50.992;5.550;2023-03-17T02:43:44;6.30;99.90
33927;DHT22;20485;50.992;5.550;2023-03-17T02:46:10;6.40;99.90
33927;DHT22;20485;50.992;5.550;2023-03-17T02:48:36;6.40;99.90
33927;DHT22;20485;50.992;5.550;2023-03-17T02:51:02;6.40;99.90
33927;DHT22;20485;50.992;5.550;2023-03-17T02:53:28;6.50;99.90
33927;DHT22;20485;50.992;5.550;2023-03-17T02:55:54;6.50;99.90
33927;DHT22;20485;50.992;5.550;2023-03-17T02:58:19;6.40;99.90
33927;DHT22;20485;50.992;5.550;2023-03-17T03:00:45;6.40;99.90
33927;DHT22;20485;50.992;5.550;2023-03-17T03:03:11;6.40;99.90
33927;DHT22;20485;50.992;5.550;2023-03-17T03:05:36;6.40;99.90
33927;DHT22;20485;50.992;5.550;2023-03-17T03:08:02;6.40;99.90
33927;DHT22;20485;50.992;5.550;2023-03-17T03:10:27;6.40;99.90
33927;DHT22;20485;50.992;5.550;2023-03-17T03:12:53;6.40;99.90
33927;DHT22;20485;50.992;5.550;2023-03-17T03:15:18;6.30;99.90
33927;DHT22;20485;50.992;5.550;2023-03-17T03:17:45;6.30;99.90
33927;DHT22;20485;50.992;5.550;2023-03-17T03:20:10;6.30;99.90
33927;DHT22;20485;50.992;5.550;2023-03-17T03:22:37;6.20;99.90
33927;DHT22;20485;50.992;5.550;2023-03-17T03:25:03;6.30;99.90
33927;DHT22;20485;50.992;5.550;2023-03-17T03:27:28;6.20;99.90
33927;DHT22;20485;50.992;5.550;2023-03-17T03:29:54;6.20;99.90
33927;DHT22;20485;50.992;5.550;2023-03-17T03:32:20;6.10;99.90
33927;DHT22;20485;50.992;5.550;2023-03-17T03:34:45;6.70;99.90
33927;DHT22;20485;50.992;5.550;2023-03-17T03:37:11;6.10;99.90
33927;DHT22;20485;50.992;5.550;2023-03-17T03:39:36;6.00;99.90
33927;DHT22;20485;50.992;5.550;2023-03-17T03:42:03;6.00;99.90
33927;DHT22;20485;50.992;5.550;2023-03-17T03:44:29;6.00;99.90
33927;DHT22;20485;50.992;5.550;2023-03-17T03:46:54;6.00;99.90
33927;DHT22;20485;50.992;5.550;2023-03-17T03:49:20;6.00;99.90
33927;DHT22;20485;50.992;5.550;2023-03-17T03:51:46;6.00;99.90
33927;DHT22;20485;50.992;5.550;2023-03-17T03:54:12;6.00;99.90
33927;DHT22;20485;50.992;5.550;2023-03-17T03:56:37;6.00;99.90
33927;DHT22;20485;50.992;5.550;2023-03-17T03:59:06;5.90;99.90
33927;DHT22;20485;50.992;5.550;2023-03-17T04:01:32;5.90;99.90
33927;DHT22;20485;50.992;5.550;2023-03-17T04:03:58;6.70;99.90
33927;DHT22;20485;50.992;5.550;2023-03-17T04:06:23;5.90;99.90
33927;DHT22;20485;50.992;5.550;2023-03-17T04:08:49;5.80;99.90
33927;DHT22;20485;50.992;5.550;2023-03-17T04:11:14;5.80;99.90
33927;DHT22;20485;50.992;5.550;2023-03-17T04:13:40;5.80;99.90
33927;DHT22;20485;50.992;5.550;2023-03-17T04:16:06;5.80;99.90
33927;DHT22;20485;50.992;5.550;2023-03-17T04:18:32;5.80;99.90
33927;DHT22;20485;50.992;5.550;2023-03-17T04:20:57;5.80;99.90
33927;DHT22;20485;50.992;5.550;2023-03-17T04:23:23;5.80;99.90
33927;DHT22;20485;50.992;5.550;2023-03-17T04:25:49;5.80;99.90
33927;DHT22;20485;50.992;5.550;2023-03-17T04:28:15;5.80;99.90
33927;DHT22;20485;50.992;5.550;2023-03-17T04:30:41;5.70;99.90
33927;DHT22;20485;50.992;5.550;2023-03-17T04:33:06;5.70;99.90
33927;DHT22;20485;50.992;5.550;2023-03-17T04:35:32;5.70;99.90
33927;DHT22;20485;50.992;5.550;2023-03-17T04:37:58;5.60;99.90
33927;DHT22;20485;50.992;5.550;2023-03-17T04:40:23;5.60;99.90
33927;DHT22;20485;50.992;5.550;2023-03-17T04:42:49;5.60;99.90
33927;DHT22;20485;50.992;5.550;2023-03-17T04:45:14;5.60;99.90
33927;DHT22;20485;50.992;5.550;2023-03-17T04:47:40;5.60;99.90
33927;DHT22;20485;50.992;5.550;2023-03-17T04:50:06;5.60;99.90
33927;DHT22;20485;50.992;5.550;2023-03-17T04:52:33;5.60;99.90
33927;DHT22;20485;50.992;5.550;2023-03-17T04:54:59;5.60;99.90
33927;DHT22;20485;50.992;5.550;2023-03-17T04:57:24;5.60;99.90
33927;DHT22;20485;50.992;5.550;2023-03-17T04:59:50;5.60;99.90
33927;DHT22;20485;50.992;5.550;2023-03-17T05:02:15;5.60;99.90
33927;DHT22;20485;50.992;5.550;2023-03-17T05:04:43;5.50;99.90
33927;DHT22;20485;50.992;5.550;2023-03-17T05:07:09;5.50;99.90
33927;DHT22;20485;50.992;5.550;2023-03-17T05:09:35;5.50;99.90
33927;DHT22;20485;50.992;5.550;2023-03-17T05:12:01;5.50;99.90
33927;DHT22;20485;50.992;5.550;2023-03-17T05:14:26;5.50;99.90
33927;DHT22;20485;50.992;5.550;2023-03-17T05:16:52;5.50;99.90
33927;DHT22;20485;50.992;5.550;2023-03-17T05:19:18;5.50;99.90
33927;DHT22;20485;50.992;5.550;2023-03-17T05:21:43;5.40;99.90
33927;DHT22;20485;50.992;5.550;2023-03-17T05:24:09;5.40;99.90
33927;DHT22;20485;50.992;5.550;2023-03-17T05:26:34;5.40;99.90
33927;DHT22;20485;50.992;5.550;2023-03-17T05:29:00;5.40;99.90
33927;DHT22;20485;50.992;5.550;2023-03-17T05:31:25;5.50;99.90
33927;DHT22;20485;50.992;5.550;2023-03-17T05:33:51;5.40;99.90
33927;DHT22;20485;50.992;5.550;2023-03-17T05:36:17;5.50;99.90
33927;DHT22;20485;50.992;5.550;2023-03-17T05:38:43;5.40;99.90
33927;DHT22;20485;50.992;5.550;2023-03-17T05:41:08;5.40;99.90
33927;DHT22;20485;50.992;5.550;2023-03-17T05:43:35;5.40;99.90
33927;DHT22;20485;50.992;5.550;2023-03-17T05:46:01;5.40;99.90
33927;DHT22;20485;50.992;5.550;2023-03-17T05:48:28;5.40;99.90
33927;DHT22;20485;50.992;5.550;2023-03-17T05:50:53;5.40;99.90
33927;DHT22;20485;50.992;5.550;2023-03-17T05:53:19;5.40;99.90
33927;DHT22;20485;50.992;5.550;2023-03-17T05:55:45;5.30;99.90
33927;DHT22;20485;50.992;5.550;2023-03-17T05:58:11;5.30;99.90
33927;DHT22;20485;50.992;5.550;2023-03-17T06:00:37;5.30;99.90
33927;DHT22;20485;50.992;5.550;2023-03-17T06:03:03;5.30;99.90
33927;DHT22;20485;50.992;5.550;2023-03-17T06:05:29;5.30;99.90
33927;DHT22;20485;50.992;5.550;2023-03-17T06:07:54;5.80;99.90
33927;DHT22;20485;50.992;5.550;2023-03-17T06:10:20;5.40;99.90
33927;DHT22;20485;50.992;5.550;2023-03-17T06:12:46;5.40;99.90
33927;DHT22;20485;50.992;5.550;2023-03-17T06:15:11;5.40;99.90
33927;DHT22;20485;50.992;5.550;2023-03-17T06:17:37;5.40;99.90
33927;DHT22;20485;50.992;5.550;2023-03-17T06:20:03;5.40;99.90
33927;DHT22;20485;50.992;5.550;2023-03-17T06:22:30;5.40;99.90
33927;DHT22;20485;50.992;5.550;2023-03-17T06:24:55;5.40;99.90
33927;DHT22;20485;50.992;5.550;2023-03-17T06:27:21;5.50;99.90
33927;DHT22;20485;50.992;5.550;2023-03-17T06:29:46;5.50;99.90
33927;DHT22;20485;50.992;5.550;2023-03-17T06:32:12;5.60;99.90
33927;DHT22;20485;50.992;5.550;2023-03-17T06:34:37;5.60;99.90
33927;DHT22;20485;50.992;5.550;2023-03-17T06:37:03;5.70;99.90
33927;DHT22;20485;50.992;5.550;2023-03-17T06:39:29;5.80;99.90
33927;DHT22;20485;50.992;5.550;2023-03-17T06:41:54;5.80;99.90
33927;DHT22;20485;50.992;5.550;2023-03-17T06:44:20;5.90;99.90
33927;DHT22;20485;50.992;5.550;2023-03-17T06:46:46;6.00;99.90
33927;DHT22;20485;50.992;5.550;2023-03-17T06:49:11;6.10;99.90
33927;DHT22;20485;50.992;5.550;2023-03-17T06:51:38;6.10;99.90
33927;DHT22;20485;50.992;5.550;2023-03-17T06:54:03;6.30;99.90
33927;DHT22;20485;50.992;5.550;2023-03-17T06:56:29;6.40;99.90
33927;DHT22;20485;50.992;5.550;2023-03-17T06:58:54;6.50;99.90
33927;DHT22;20485;50.992;5.550;2023-03-17T07:01:20;6.50;99.90
33927;DHT22;20485;50.992;5.550;2023-03-17T07:03:46;6.60;99.90
33927;DHT22;20485;50.992;5.550;2023-03-17T07:06:12;6.70;99.90
33927;DHT22;20485;50.992;5.550;2023-03-17T07:08:38;6.90;99.90
33927;DHT22;20485;50.992;5.550;2023-03-17T07:11:05;7.00;99.90
33927;DHT22;20485;50.992;5.550;2023-03-17T07:13:31;7.10;99.90
33927;DHT22;20485;50.992;5.550;2023-03-17T07:16:00;7.20;99.90
33927;DHT22;20485;50.992;5.550;2023-03-17T07:18:27;7.30;99.90
33927;DHT22;20485;50.992;5.550;2023-03-17T07:20:56;7.40;99.90
33927;DHT22;20485;50.992;5.550;2023-03-17T07:23:22;7.50;99.90
33927;DHT22;20485;50.992;5.550;2023-03-17T07:25:48;7.60;99.90
33927;DHT22;20485;50.992;5.550;2023-03-17T07:28:14;7.60;99.90
33927;DHT22;20485;50.992;5.550;2023-03-17T07:30:40;7.80;99.90
33927;DHT22;20485;50.992;5.550;2023-03-17T07:33:13;7.90;99.90
33927;DHT22;20485;50.992;5.550;2023-03-17T07:35:40;8.10;99.90
33927;DHT22;20485;50.992;5.550;2023-03-17T07:38:05;8.20;99.90
33927;DHT22;20485;50.992;5.550;2023-03-17T07:40:31;8.30;99.90
33927;DHT22;20485;50.992;5.550;2023-03-17T07:42:57;8.40;99.90
33927;DHT22;20485;50.992;5.550;2023-03-17T07:45:22;8.50;99.90
33927;DHT22;20485;50.992;5.550;2023-03-17T07:47:49;8.60;99.90
33927;DHT22;20485;50.992;5.550;2023-03-17T07:50:16;8.70;99.90
33927;DHT22;20485;50.992;5.550;2023-03-17T07:52:41;8.80;99.90
33927;DHT22;20485;50.992;5.550;2023-03-17T07:55:08;9.00;99.90
33927;DHT22;20485;50.992;5.550;2023-03-17T07:57:36;9.20;99.90
33927;DHT22;20485;50.992;5.550;2023-03-17T08:00:03;9.20;99.90
33927;DHT22;20485;50.992;5.550;2023-03-17T08:02:29;9.30;99.90
33927;DHT22;20485;50.992;5.550;2023-03-17T08:05:05;9.30;99.90
33927;DHT22;20485;50.992;5.550;2023-03-17T08:07:32;9.40;99.90
33927;DHT22;20485;50.992;5.550;2023-03-17T08:09:57;9.40;99.90
33927;DHT22;20485;50.992;5.550;2023-03-17T08:12:23;9.50;99.90
33927;DHT22;20485;50.992;5.550;2023-03-17T08:14:48;9.60;99.90
33927;DHT22;20485;50.992;5.550;2023-03-17T08:17:14;9.60;99.90
33927;DHT22;20485;50.992;5.550;2023-03-17T08:19:41;9.70;99.90
33927;DHT22;20485;50.992;5.550;2023-03-17T08:22:06;9.80;99.90
33927;DHT22;20485;50.992;5.550;2023-03-17T08:24:32;9.80;99.90
33927;DHT22;20485;50.992;5.550;2023-03-17T08:26:58;10.10;99.90
33927;DHT22;20485;50.992;5.550;2023-03-17T08:29:24;10.10;99.90
33927;DHT22;20485;50.992;5.550;2023-03-17T08:31:49;10.20;99.90
33927;DHT22;20485;50.992;5.550;2023-03-17T08:34:15;10.30;99.90
33927;DHT22;20485;50.992;5.550;2023-03-17T08:36:41;10.40;99.90
33927;DHT22;20485;50.992;5.550;2023-03-17T08:39:06;10.60;99.90
33927;DHT22;20485;50.992;5.550;2023-03-17T08:41:33;10.60;99.90
33927;DHT22;20485;50.992;5.550;2023-03-17T08:43:59;10.70;99.90
33927;DHT22;20485;50.992;5.550;2023-03-17T08:46:25;10.80;99.90
33927;DHT22;20485;50.992;5.550;2023-03-17T08:48:51;10.90;99.90
33927;DHT22;20485;50.992;5.550;2023-03-17T08:51:18;10.90;99.90
33927;DHT22;20485;50.992;5.550;2023-03-17T08:53:44;11.00;99.90
33927;DHT22;20485;50.992;5.550;2023-03-17T08:56:10;11.20;99.90
33927;DHT22;20485;50.992;5.550;2023-03-17T08:58:36;11.30;99.90
33927;DHT22;20485;50.992;5.550;2023-03-17T09:01:04;11.40;99.90
33927;DHT22;20485;50.992;5.550;2023-03-17T09:03:31;11.60;99.90
33927;DHT22;20485;50.992;5.550;2023-03-17T09:05:57;11.70;99.90
33927;DHT22;20485;50.992;5.550;2023-03-17T09:08:23;11.80;99.90
33927;DHT22;20485;50.992;5.550;2023-03-17T09:10:49;11.80;99.90
33927;DHT22;20485;50.992;5.550;2023-03-17T09:13:16;11.90;99.90
33927;DHT22;20485;50.992;5.550;2023-03-17T09:15:42;12.10;99.90
33927;DHT22;20485;50.992;5.550;2023-03-17T09:18:07;12.30;99.90
33927;DHT22;20485;50.992;5.550;2023-03-17T09:20:33;12.50;99.90
33927;DHT22;20485;50.992;5.550;2023-03-17T09:22:59;12.60;99.90
33927;DHT22;20485;50.992;5.550;2023-03-17T09:25:25;12.70;99.90
33927;DHT22;20485;50.992;5.550;2023-03-17T09:27:51;12.90;99.90
33927;DHT22;20485;50.992;5.550;2023-03-17T09:30:17;12.90;99.90
33927;DHT22;20485;50.992;5.550;2023-03-17T09:32:43;12.90;99.90
33927;DHT22;20485;50.992;5.550;2023-03-17T09:35:09;13.00;99.90
33927;DHT22;20485;50.992;5.550;2023-03-17T09:37:34;13.00;99.90
33927;DHT22;20485;50.992;5.550;2023-03-17T09:40:00;13.00;99.90
33927;DHT22;20485;50.992;5.550;2023-03-17T09:42:38;13.00;99.90
33927;DHT22;20485;50.992;5.550;2023-03-17T09:45:19;13.10;99.90
33927;DHT22;20485;50.992;5.550;2023-03-17T09:47:58;13.10;99.90
33927;DHT22;20485;50.992;5.550;2023-03-17T09:50:39;13.10;99.90
33927;DHT22;20485;50.992;5.550;2023-03-17T09:53:11;13.30;99.90
33927;DHT22;20485;50.992;5.550;2023-03-17T09:55:39;13.30;99.90
33927;DHT22;20485;50.992;5.550;2023-03-17T09:58:07;13.50;99.90
33927;DHT22;20485;50.992;5.550;2023-03-17T10:00:33;13.70;99.90
33927;DHT22;20485;50.992;5.550;2023-03-17T10:02:58;14.00;99.90
33927;DHT22;20485;50.992;5.550;2023-03-17T10:05:33;14.20;99.90
33927;DHT22;20485;50.992;5.550;2023-03-17T10:15:48;13.90;99.90
33927;DHT22;20485;50.992;5.550;2023-03-17T10:18:15;13.90;99.90
33927;DHT22;20485;50.992;5.550;2023-03-17T10:23:40;14.00;99.90
33927;DHT22;20485;50.992;5.550;2023-03-17T10:26:16;14.10;99.90
33927;DHT22;20485;50.992;5.550;2023-03-17T10:28:43;14.20;99.90
33927;DHT22;20485;50.992;5.550;2023-03-17T10:31:16;14.30;99.90
33927;DHT22;20485;50.992;5.550;2023-03-17T10:33:42;14.40;99.90
33927;DHT22;20485;50.992;5.550;2023-03-17T10:36:09;14.40;99.90
33927;DHT22;20485;50.992;5.550;2023-03-17T10:38:35;14.40;99.90
33927;DHT22;20485;50.992;5.550;2023-03-17T10:41:07;14.60;99.90
33927;DHT22;20485;50.992;5.550;2023-03-17T10:43:36;14.80;99.90
33927;DHT22;20485;50.992;5.550;2023-03-17T10:46:04;15.00;99.90
33927;DHT22;20485;50.992;5.550;2023-03-17T10:48:34;15.20;99.90
33927;DHT22;20485;50.992;5.550;2023-03-17T10:51:00;15.10;99.90
33927;DHT22;20485;50.992;5.550;2023-03-17T10:53:30;15.10;99.90
33927;DHT22;20485;50.992;5.550;2023-03-17T10:56:09;15.10;99.90
33927;DHT22;20485;50.992;5.550;2023-03-17T10:58:39;15.10;99.90
33927;DHT22;20485;50.992;5.550;2023-03-17T11:01:20;15.00;99.90
33927;DHT22;20485;50.992;5.550;2023-03-17T11:03:46;14.90;99.90
33927;DHT22;20485;50.992;5.550;2023-03-17T11:06:13;15.00;99.90
33927;DHT22;20485;50.992;5.550;2023-03-17T11:08:41;14.90;99.90
33927;DHT22;20485;50.992;5.550;2023-03-17T11:11:21;15.00;99.90
33927;DHT22;20485;50.992;5.550;2023-03-17T11:13:46;15.00;99.90
33927;DHT22;20485;50.992;5.550;2023-03-17T11:16:22;15.10;99.90
33927;DHT22;20485;50.992;5.550;2023-03-17T11:18:51;15.00;99.90
33927;DHT22;20485;50.992;5.550;2023-03-17T11:21:27;15.10;99.90
33927;DHT22;20485;50.992;5.550;2023-03-17T11:24:00;15.20;99.90
33927;DHT22;20485;50.992;5.550;2023-03-17T11:31:40;15.40;99.90
33927;DHT22;20485;50.992;5.550;2023-03-17T11:34:10;15.60;99.90
33927;DHT22;20485;50.992;5.550;2023-03-17T11:39:14;15.60;99.90
33927;DHT22;20485;50.992;5.550;2023-03-17T11:46:50;15.60;99.90
33927;DHT22;20485;50.992;5.550;2023-03-17T11:49:37;15.50;99.90
33927;DHT22;20485;50.992;5.550;2023-03-17T11:52:10;15.50;99.90
33927;DHT22;20485;50.992;5.550;2023-03-17T11:54:45;15.50;99.90
33927;DHT22;20485;50.992;5.550;2023-03-17T11:57:25;15.60;99.90
33927;DHT22;20485;50.992;5.550;2023-03-17T11:59:57;15.70;99.90
33927;DHT22;20485;50.992;5.550;2023-03-17T12:02:35;15.80;99.90
33927;DHT22;20485;50.992;5.550;2023-03-17T12:05:05;15.90;99.90
33927;DHT22;20485;50.992;5.550;2023-03-17T12:12:41;16.40;99.90
33927;DHT22;20485;50.992;5.550;2023-03-17T12:15:13;16.50;99.90
33927;DHT22;20485;50.992;5.550;2023-03-17T12:17:47;16.80;99.90
33927;DHT22;20485;50.992;5.550;2023-03-17T12:20:19;16.90;99.90
33927;DHT22;20485;50.992;5.550;2023-03-17T12:22:52;17.00;99.90
33927;DHT22;20485;50.992;5.550;2023-03-17T12:27:49;17.30;99.90
33927;DHT22;20485;50.992;5.550;2023-03-17T12:32:57;17.40;99.90
33927;DHT22;20485;50.992;5.550;2023-03-17T12:35:32;17.50;99.90
33927;DHT22;20485;50.992;5.550;2023-03-17T12:38:09;17.50;99.90
33927;DHT22;20485;50.992;5.550;2023-03-17T12:46:42;17.60;99.90
33927;DHT22;20485;50.992;5.550;2023-03-17T12:54:25;17.60;99.90
33927;DHT22;20485;50.992;5.550;2023-03-17T12:56:51;17.70;99.90
33927;DHT22;20485;50.992;5.550;2023-03-17T12:59:21;17.80;99.90
33927;DHT22;20485;50.992;5.550;2023-03-17T13:01:53;17.80;99.90
33927;DHT22;20485;50.992;5.550;2023-03-17T13:04:26;18.00;99.90
33927;DHT22;20485;50.992;5.550;2023-03-17T13:06:56;18.00;99.90
33927;DHT22;20485;50.992;5.550;2023-03-17T13:09:28;17.90;99.90
33927;DHT22;20485;50.992;5.550;2023-03-17T13:11:54;18.00;99.90
33927;DHT22;20485;50.992;5.550;2023-03-17T13:14:38;18.00;99.90
33927;DHT22;20485;50.992;5.550;2023-03-17T13:17:04;18.00;99.90
33927;DHT22;20485;50.992;5.550;2023-03-17T13:22:33;18.10;99.90
33927;DHT22;20485;50.992;5.550;2023-03-17T13:27:41;18.30;99.90
33927;DHT22;20485;50.992;5.550;2023-03-17T13:32:54;18.70;99.90
33927;DHT22;20485;50.992;5.550;2023-03-17T13:35:21;18.80;99.90
33927;DHT22;20485;50.992;5.550;2023-03-17T13:45:41;19.00;99.90
33927;DHT22;20485;50.992;5.550;2023-03-17T13:50:56;19.00;99.90
33927;DHT22;20485;50.992;5.550;2023-03-17T13:53:24;19.00;99.90
33927;DHT22;20485;50.992;5.550;2023-03-17T13:56:03;19.00;99.90
33927;DHT22;20485;50.992;5.550;2023-03-17T13:58:31;18.90;99.90
33927;DHT22;20485;50.992;5.550;2023-03-17T14:00:58;18.70;99.90
33927;DHT22;20485;50.992;5.550;2023-03-17T14:03:30;18.50;99.90
33927;DHT22;20485;50.992;5.550;2023-03-17T14:05:58;18.30;99.90
33927;DHT22;20485;50.992;5.550;2023-03-17T14:08:29;18.30;99.90
33927;DHT22;20485;50.992;5.550;2023-03-17T14:10:56;18.30;99.90
33927;DHT22;20485;50.992;5.550;2023-03-17T14:13:27;18.30;99.90
33927;DHT22;20485;50.992;5.550;2023-03-17T14:16:01;18.20;99.90
33927;DHT22;20485;50.992;5.550;2023-03-17T14:18:33;18.20;99.90
33927;DHT22;20485;50.992;5.550;2023-03-17T14:21:00;18.10;99.90
33927;DHT22;20485;50.992;5.550;2023-03-17T14:23:27;18.00;99.90
33927;DHT22;20485;50.992;5.550;2023-03-17T14:25:54;17.80;99.90
33927;DHT22;20485;50.992;5.550;2023-03-17T14:28:22;17.80;99.90
33927;DHT22;20485;50.992;5.550;2023-03-17T14:30:53;17.80;99.90
33927;DHT22;20485;50.992;5.550;2023-03-17T14:35:49;17.90;99.90
33927;DHT22;20485;50.992;5.550;2023-03-17T14:38:19;17.90;99.90
33927;DHT22;20485;50.992;5.550;2023-03-17T14:40:45;17.80;99.90
33927;DHT22;20485;50.992;5.550;2023-03-17T14:43:11;17.90;99.90
33927;DHT22;20485;50.992;5.550;2023-03-17T14:45:49;17.90;99.90
33927;DHT22;20485;50.992;5.550;2023-03-17T14:48:16;17.90;99.90
33927;DHT22;20485;50.992;5.550;2023-03-17T14:50:53;17.70;99.90
33927;DHT22;20485;50.992;5.550;2023-03-17T14:53:20;17.70;99.90
33927;DHT22;20485;50.992;5.550;2023-03-17T14:55:46;17.70;99.90
33927;DHT22;20485;50.992;5.550;2023-03-17T14:58:34;17.60;99.90
33927;DHT22;20485;50.992;5.550;2023-03-17T15:01:01;17.60;99.90
33927;DHT22;20485;50.992;5.550;2023-03-17T15:03:28;17.50;99.90
33927;DHT22;20485;50.992;5.550;2023-03-17T15:06:20;17.50;99.90
33927;DHT22;20485;50.992;5.550;2023-03-17T15:08:46;17.40;99.90
33927;DHT22;20485;50.992;5.550;2023-03-17T15:13:40;17.20;99.90
33927;DHT22;20485;50.992;5.550;2023-03-17T15:16:16;17.20;99.90
33927;DHT22;20485;50.992;5.550;2023-03-17T15:18:44;17.20;99.90
33927;DHT22;20485;50.992;5.550;2023-03-17T15:24:19;17.10;99.90
33927;DHT22;20485;50.992;5.550;2023-03-17T15:26:46;17.00;99.90
33927;DHT22;20485;50.992;5.550;2023-03-17T15:29:11;16.90;99.90
33927;DHT22;20485;50.992;5.550;2023-03-17T15:31:37;16.80;99.90
33927;DHT22;20485;50.992;5.550;2023-03-17T15:34:02;16.70;99.90
33927;DHT22;20485;50.992;5.550;2023-03-17T15:36:28;16.60;99.90
33927;DHT22;20485;50.992;5.550;2023-03-17T15:38:53;16.60;99.90
33927;DHT22;20485;50.992;5.550;2023-03-17T15:41:19;16.40;99.90
33927;DHT22;20485;50.992;5.550;2023-03-17T15:43:45;16.40;99.90
33927;DHT22;20485;50.992;5.550;2023-03-17T15:46:18;16.40;99.90
33927;DHT22;20485;50.992;5.550;2023-03-17T15:48:45;16.20;99.90
33927;DHT22;20485;50.992;5.550;2023-03-17T15:51:10;16.20;99.90
33927;DHT22;20485;50.992;5.550;2023-03-17T15:53:36;16.10;99.90
33927;DHT22;20485;50.992;5.550;2023-03-17T15:56:02;16.00;99.90
33927;DHT22;20485;50.992;5.550;2023-03-17T15:58:27;16.00;99.90
33927;DHT22;20485;50.992;5.550;2023-03-17T16:00:54;15.90;99.90
33927;DHT22;20485;50.992;5.550;2023-03-17T16:03:30;15.90;99.90
33927;DHT22;20485;50.992;5.550;2023-03-17T16:05:57;15.80;99.90
33927;DHT22;20485;50.992;5.550;2023-03-17T16:08:22;15.70;99.90
33927;DHT22;20485;50.992;5.550;2023-03-17T16:10:49;15.70;99.90
33927;DHT22;20485;50.992;5.550;2023-03-17T16:13:16;15.80;99.90
33927;DHT22;20485;50.992;5.550;2023-03-17T16:15:42;15.70;99.90
33927;DHT22;20485;50.992;5.550;2023-03-17T16:18:13;15.60;99.90
33927;DHT22;20485;50.992;5.550;2023-03-17T16:20:40;15.50;99.90
33927;DHT22;20485;50.992;5.550;2023-03-17T16:23:27;15.50;99.90
33927;DHT22;20485;50.992;5.550;2023-03-17T16:25:52;15.50;99.90
33927;DHT22;20485;50.992;5.550;2023-03-17T16:28:19;15.40;99.90
33927;DHT22;20485;50.992;5.550;2023-03-17T16:30:45;15.30;99.90
33927;DHT22;20485;50.992;5.550;2023-03-17T16:33:15;15.20;99.90
33927;DHT22;20485;50.992;5.550;2023-03-17T16:35:41;15.20;99.90
33927;DHT22;20485;50.992;5.550;2023-03-17T16:38:13;15.10;99.90
33927;DHT22;20485;50.992;5.550;2023-03-17T16:40:39;15.10;99.90
33927;DHT22;20485;50.992;5.550;2023-03-17T16:43:10;15.00;99.90
33927;DHT22;20485;50.992;5.550;2023-03-17T16:45:37;15.00;99.90
33927;DHT22;20485;50.992;5.550;2023-03-17T16:48:03;14.90;99.90
33927;DHT22;20485;50.992;5.550;2023-03-17T16:50:30;14.90;99.90
33927;DHT22;20485;50.992;5.550;2023-03-17T16:52:58;14.90;99.90
33927;DHT22;20485;50.992;5.550;2023-03-17T16:55:25;14.90;99.90
33927;DHT22;20485;50.992;5.550;2023-03-17T16:57:52;14.90;99.90
33927;DHT22;20485;50.992;5.550;2023-03-17T17:00:20;14.90;99.90
33927;DHT22;20485;50.992;5.550;2023-03-17T17:02:46;14.80;99.90